createdAt,value
2023-01-13T00:04:12.547Z,75.40
2023-01-13T00:09:14.714Z,74.70
2023-01-13T00:14:18.180Z,75.20
2023-01-13T00:19:20.431Z,75.30
2023-01-13T00:24:22.759Z,75.00
2023-01-13T00:29:24.966Z,75.00
2023-01-13T00:34:27.212Z,75.10
2023-01-13T00:39:29.513Z,75.10
2023-01-13T00:44:31.671Z,75.20
2023-01-13T00:49:33.879Z,74.80
2023-01-13T00:54:36.081Z,76.10
2023-01-13T00:59:38.321Z,75.60
2023-01-13T01:04:40.574Z,74.80
2023-01-13T01:09:42.767Z,75.00
2023-01-13T01:14:45.071Z,75.10
2023-01-13T01:19:47.228Z,75.10
2023-01-13T01:24:49.408Z,75.40
2023-01-13T01:29:51.809Z,75.20
2023-01-13T01:34:53.977Z,74.80
2023-01-13T01:39:56.189Z,75.00
2023-01-13T01:45:03.744Z,73.90
2023-01-13T01:50:06.518Z,75.00
2023-01-13T01:55:15.359Z,74.40
2023-01-13T02:00:17.800Z,74.70
2023-01-13T02:05:20.470Z,74.70
2023-01-13T02:10:26.154Z,74.60
2023-01-13T02:15:44.248Z,75.50
2023-01-13T02:31:43.477Z,74.60
2023-01-13T02:47:24.647Z,74.80
2023-01-13T02:52:37.926Z,74.30
2023-01-13T02:57:41.611Z,74.70
2023-01-13T03:02:43.839Z,74.30
2023-01-13T03:23:52.137Z,74.10
2023-01-13T03:29:05.304Z,74.80
2023-01-13T03:34:13.299Z,74.40
2023-01-13T03:39:22.771Z,74.50
2023-01-13T03:49:59.518Z,74.80
2023-01-13T04:00:21.812Z,74.30
2023-01-13T04:05:25.155Z,74.50
2023-01-13T04:10:34.829Z,74.30
2023-01-13T04:15:41.175Z,74.30
2023-01-13T04:20:46.038Z,74.50
2023-01-13T04:25:48.746Z,74.60
2023-01-13T04:30:52.211Z,74.60
2023-01-13T04:35:55.312Z,74.70
2023-01-13T04:40:57.580Z,74.90
2023-01-13T04:45:59.829Z,75.10
2023-01-13T04:51:02.058Z,75.30
2023-01-13T04:56:04.388Z,75.10
2023-01-13T05:01:06.671Z,74.60
2023-01-13T05:06:08.962Z,74.90
2023-01-13T05:11:31.075Z,74.60
2023-01-13T05:16:53.445Z,74.20
2023-01-13T05:22:15.927Z,74.30
2023-01-13T05:27:18.217Z,74.60
2023-01-13T05:32:21.697Z,74.80
2023-01-13T05:37:25.789Z,74.80
2023-01-13T05:42:48.264Z,75.10
2023-01-13T05:47:50.800Z,74.90
2023-01-13T05:52:53.084Z,75.10
2023-01-13T05:57:55.364Z,75.70
2023-01-13T06:02:57.630Z,74.90
2023-01-13T06:08:01.286Z,75.20
2023-01-13T06:13:04.727Z,75.60
2023-01-13T06:18:06.986Z,75.50
2023-01-13T06:23:11.503Z,75.60
2023-01-13T06:28:13.827Z,75.20
2023-01-13T06:33:20.704Z,75.60
2023-01-13T06:38:27.240Z,75.30
2023-01-13T06:43:29.562Z,75.40
2023-01-13T06:48:35.481Z,75.40
2023-01-13T06:53:37.920Z,76.20
2023-01-13T06:58:40.160Z,76.80
2023-01-13T07:03:42.415Z,76.70
2023-01-13T07:08:44.639Z,76.70
2023-01-13T07:14:06.813Z,76.40
2023-01-13T07:19:09.118Z,76.00
2023-01-13T07:24:11.369Z,76.10
2023-01-13T07:29:13.755Z,75.30
2023-01-13T07:34:16.107Z,75.70
2023-01-13T07:39:18.429Z,75.10
2023-01-13T07:44:20.717Z,75.40
2023-01-13T07:49:23.124Z,75.10
2023-01-13T07:54:39.578Z,75.00
2023-01-13T07:59:42.999Z,74.70
2023-01-13T08:04:45.254Z,74.80
2023-01-13T08:09:47.553Z,74.90
2023-01-13T08:14:50.956Z,74.70
2023-01-13T08:19:53.273Z,74.90
2023-01-13T08:24:55.518Z,75.00
2023-01-13T08:29:57.747Z,74.60
2023-01-13T08:34:59.959Z,74.30
2023-01-13T08:40:02.315Z,74.60
2023-01-13T08:45:06.259Z,74.70
2023-01-13T08:50:09.372Z,74.40
2023-01-13T08:55:12.139Z,74.10
2023-01-13T09:00:15.220Z,74.20
2023-01-13T15:42:18.010Z,73.40
2023-01-13T15:47:23.032Z,73.80
2023-01-13T15:52:27.597Z,74.30
2023-01-13T15:57:33.067Z,74.30
2023-01-13T16:02:35.358Z,74.40
2023-01-13T16:07:37.836Z,73.90
2023-01-13T16:12:40.071Z,74.90
2023-01-13T16:17:44.349Z,74.30
2023-01-13T16:22:46.604Z,74.60
2023-01-13T16:27:48.885Z,74.20
2023-01-13T16:32:51.392Z,74.40
2023-01-13T16:37:55.067Z,74.10
2023-01-13T16:42:57.949Z,73.90
2023-01-13T16:48:00.348Z,73.80
2023-01-13T16:53:04.444Z,73.90
2023-01-13T16:58:12.359Z,73.80
2023-01-13T17:03:15.531Z,74.00
2023-01-13T17:08:18.306Z,73.90
2023-01-13T17:13:21.032Z,73.50
2023-01-13T17:18:23.322Z,73.60
2023-01-13T17:23:25.579Z,73.50
2023-01-13T17:28:27.856Z,73.00
2023-01-13T17:33:37.144Z,73.50
2023-01-13T17:38:39.400Z,73.60
2023-01-13T17:43:41.704Z,73.50
2023-01-13T17:48:44.268Z,73.40
2023-01-13T17:53:46.916Z,73.00
2023-01-13T17:58:49.209Z,73.00
2023-01-13T18:03:51.579Z,72.60
2023-01-13T18:08:54.069Z,73.00
2023-01-13T18:13:57.712Z,72.90
2023-01-13T18:19:20.727Z,72.90
2023-01-13T18:24:42.792Z,72.90
2023-01-13T18:29:46.701Z,73.00
2023-01-13T18:34:50.459Z,72.60
2023-01-13T18:39:56.131Z,72.50
2023-01-13T18:44:58.543Z,72.90
2023-01-13T18:50:00.868Z,72.90
2023-01-13T18:55:03.885Z,72.90
2023-01-13T19:00:13.047Z,72.80
2023-01-13T19:05:15.475Z,72.80
2023-01-13T19:10:18.301Z,72.70
2023-01-13T19:15:20.547Z,72.70
2023-01-13T19:20:22.767Z,72.60
2023-01-13T19:25:25.117Z,72.50
2023-01-13T19:30:27.362Z,72.40
2023-01-13T19:35:29.564Z,72.50
2023-01-13T19:40:31.761Z,72.50
2023-01-13T19:45:35.496Z,72.60
2023-01-13T19:50:39.973Z,72.60
2023-01-13T19:55:48.501Z,72.50
2023-01-13T20:00:51.606Z,72.60
2023-01-13T20:05:54.434Z,72.10
2023-01-13T20:11:16.570Z,72.40
2023-01-13T20:16:18.884Z,72.60
2023-01-13T20:21:21.245Z,72.70
2023-01-13T20:26:23.478Z,72.50
2023-01-13T20:31:25.805Z,72.30
2023-01-13T20:36:33.563Z,72.60
2023-01-13T20:41:55.645Z,72.70
2023-01-13T20:46:59.169Z,72.90
2023-01-13T20:52:01.573Z,72.70
2023-01-13T20:57:05.693Z,72.70
2023-01-13T21:02:13.317Z,72.40
2023-01-13T21:07:15.619Z,72.20
2023-01-13T21:12:37.775Z,72.50
2023-01-13T21:17:59.908Z,72.60
2023-01-13T21:23:03.743Z,72.40
2023-01-13T21:28:06.796Z,72.80
2023-01-13T21:33:13.365Z,72.60
2023-01-13T21:38:15.552Z,72.70
2023-01-13T21:43:37.609Z,72.90
2023-01-13T21:48:39.850Z,72.50
2023-01-13T21:53:42.115Z,72.80
2023-01-13T21:58:44.390Z,72.70
2023-01-13T22:04:06.482Z,72.50
2023-01-13T22:09:08.733Z,72.40
2023-01-13T22:14:11.087Z,71.70
2023-01-13T22:19:13.271Z,72.40
2023-01-13T22:24:15.564Z,72.70
2023-01-13T22:29:17.996Z,72.10
2023-01-13T22:34:20.347Z,73.10
2023-01-13T22:39:22.578Z,72.70
2023-01-13T22:44:25.205Z,72.60
2023-01-13T22:49:27.482Z,72.10
2023-01-13T22:54:30.435Z,72.40
2023-01-13T22:59:32.705Z,72.40
2023-01-13T23:04:35.166Z,72.60
2023-01-13T23:09:37.349Z,71.70
2023-01-13T23:14:39.580Z,72.20
2023-01-13T23:19:41.883Z,72.50
2023-01-13T23:24:44.103Z,72.30
2023-01-13T23:29:46.332Z,71.90
2023-01-13T23:34:48.647Z,72.90
2023-01-13T23:39:50.896Z,72.30
2023-01-13T23:44:53.081Z,72.20
2023-01-13T23:49:55.286Z,71.90
2023-01-13T23:54:59.277Z,72.30
